sensor_id;sensor_type;location;lat;lon;timestamp;pressure;altitude;pressure_sealevel;temperature;humidity
13836;BME280;6988;52.614;13.500;2022-08-19T00:03:18;53617.84;;;-143.77;82.45
13836;BME280;6988;52.614;13.500;2022-08-19T00:08:10;53619.88;;;-143.77;82.16
13836;BME280;6988;52.614;13.500;2022-08-19T00:13:02;53638.34;;;-143.77;81.48
13836;BME280;6988;52.614;13.500;2022-08-19T00:17:56;53619.88;;;-143.77;81.55
13836;BME280;6988;52.614;13.500;2022-08-19T00:22:48;53638.34;;;-143.77;80.83
13836;BME280;6988;52.614;13.500;2022-08-19T00:27:39;53605.53;;;-143.77;80.48
13836;BME280;6988;52.614;13.500;2022-08-19T00:32:32;53585.00;;;-143.77;80.27
13836;BME280;6988;52.614;13.500;2022-08-19T00:37:26;53636.31;;;-143.77;79.90
13836;BME280;6988;52.614;13.500;2022-08-19T00:42:20;53593.22;;;-143.77;79.20
13836;BME280;6988;52.614;13.500;2022-08-19T00:47:13;53601.44;;;-143.77;78.87
13836;BME280;6988;52.614;13.500;2022-08-19T00:52:11;53593.22;;;-143.77;79.62
13836;BME280;6988;52.614;13.500;2022-08-19T00:57:11;53617.84;;;-143.77;80.39
13836;BME280;6988;52.614;13.500;2022-08-19T01:02:04;53615.78;;;-143.77;80.87
13836;BME280;6988;52.614;13.500;2022-08-19T01:06:57;53609.63;;;-143.77;81.40
13836;BME280;6988;52.614;13.500;2022-08-19T01:11:51;53630.16;;;-143.77;81.35
13836;BME280;6988;52.614;13.500;2022-08-19T01:16:45;53646.56;;;-143.77;81.00
13836;BME280;6988;52.614;13.500;2022-08-19T01:21:45;53605.53;;;-143.77;80.32
13836;BME280;6988;52.614;13.500;2022-08-19T01:26:43;53582.97;;;-143.77;80.55
13836;BME280;6988;52.614;13.500;2022-08-19T01:31:36;53619.88;;;-143.77;80.52
13836;BME280;6988;52.614;13.500;2022-08-19T01:36:32;53646.56;;;-143.77;81.12
13836;BME280;6988;52.614;13.500;2022-08-19T01:41:24;53634.25;;;-143.77;81.14
13836;BME280;6988;52.614;13.500;2022-08-19T01:46:18;53638.34;;;-143.77;81.43
13836;BME280;6988;52.614;13.500;2022-08-19T01:51:11;53650.66;;;-143.77;81.88
13836;BME280;6988;52.614;13.500;2022-08-19T01:56:05;53669.13;;;-143.77;81.49
13836;BME280;6988;52.614;13.500;2022-08-19T02:00:58;53654.75;;;-143.77;81.23
13836;BME280;6988;52.614;13.500;2022-08-19T02:05:56;53654.75;;;-143.77;81.80
13836;BME280;6988;52.614;13.500;2022-08-19T02:10:50;53615.78;;;-143.77;82.74
13836;BME280;6988;52.614;13.500;2022-08-19T02:15:42;53638.34;;;-143.77;83.08
13836;BME280;6988;52.614;13.500;2022-08-19T02:20:33;53662.97;;;-143.77;84.33
13836;BME280;6988;52.614;13.500;2022-08-19T02:25:27;53671.19;;;-143.77;84.31
13836;BME280;6988;52.614;13.500;2022-08-19T02:30:20;53691.69;;;-143.77;85.31
13836;BME280;6988;52.614;13.500;2022-08-19T02:35:13;53691.69;;;-143.77;86.12
13836;BME280;6988;52.614;13.500;2022-08-19T02:40:07;53695.78;;;-143.77;86.56
13836;BME280;6988;52.614;13.500;2022-08-19T02:45:00;53699.91;;;-143.77;86.67
13836;BME280;6988;52.614;13.500;2022-08-19T02:49:52;53699.91;;;-143.77;86.53
13836;BME280;6988;52.614;13.500;2022-08-19T02:54:43;53708.09;;;-143.77;86.47
13836;BME280;6988;52.614;13.500;2022-08-19T02:59:36;53701.94;;;-143.77;86.49
13836;BME280;6988;52.614;13.500;2022-08-19T03:04:29;53708.09;;;-143.77;86.81
13836;BME280;6988;52.614;13.500;2022-08-19T03:09:21;53728.63;;;-143.77;86.75
13836;BME280;6988;52.614;13.500;2022-08-19T03:14:13;53712.22;;;-143.77;86.93
13836;BME280;6988;52.614;13.500;2022-08-19T03:19:05;53667.06;;;-143.77;86.71
13836;BME280;6988;52.614;13.500;2022-08-19T03:24:01;53712.22;;;-143.77;87.21
13836;BME280;6988;52.614;13.500;2022-08-19T03:28:53;53738.88;;;-143.77;86.73
13836;BME280;6988;52.614;13.500;2022-08-19T03:33:45;53687.59;;;-143.77;86.71
13836;BME280;6988;52.614;13.500;2022-08-19T03:38:40;53677.34;;;-143.77;86.71
13836;BME280;6988;52.614;13.500;2022-08-19T03:43:35;53691.69;;;-143.77;87.49
13836;BME280;6988;52.614;13.500;2022-08-19T03:48:27;53677.34;;;-143.77;87.58
13836;BME280;6988;52.614;13.500;2022-08-19T03:53:21;53699.91;;;-143.77;88.38
13836;BME280;6988;52.614;13.500;2022-08-19T03:58:12;53693.75;;;-143.77;88.60
13836;BME280;6988;52.614;13.500;2022-08-19T04:03:06;53704.00;;;-143.77;89.02
13836;BME280;6988;52.614;13.500;2022-08-19T04:07:58;53701.94;;;-143.77;89.08
13836;BME280;6988;52.614;13.500;2022-08-19T04:12:51;53724.50;;;-143.77;88.64
13836;BME280;6988;52.614;13.500;2022-08-19T04:17:42;53736.81;;;-143.77;89.06
13836;BME280;6988;52.614;13.500;2022-08-19T04:22:35;53736.81;;;-143.77;88.86
13836;BME280;6988;52.614;13.500;2022-08-19T04:27:27;53732.72;;;-143.77;88.78
13836;BME280;6988;52.614;13.500;2022-08-19T04:32:19;53728.63;;;-143.77;88.82
13836;BME280;6988;52.614;13.500;2022-08-19T04:37:11;53689.63;;;-143.77;88.38
13836;BME280;6988;52.614;13.500;2022-08-19T04:42:05;53708.09;;;-143.77;88.10
13836;BME280;6988;52.614;13.500;2022-08-19T04:47:14;53740.94;;;-143.77;88.66
13836;BME280;6988;52.614;13.500;2022-08-19T04:52:06;53712.22;;;-143.77;88.76
13836;BME280;6988;52.614;13.500;2022-08-19T04:56:58;53699.91;;;-143.77;88.81
13836;BME280;6988;52.614;13.500;2022-08-19T05:01:52;53730.66;;;-143.77;88.54
13836;BME280;6988;52.614;13.500;2022-08-19T05:06:43;53716.31;;;-143.77;88.45
13836;BME280;6988;52.614;13.500;2022-08-19T05:11:36;53706.06;;;-143.77;88.45
13836;BME280;6988;52.614;13.500;2022-08-19T05:16:29;53716.31;;;-143.77;88.56
13836;BME280;6988;52.614;13.500;2022-08-19T05:21:22;53691.69;;;-143.77;88.43
13836;BME280;6988;52.614;13.500;2022-08-19T05:26:32;53759.41;;;-143.77;87.78
13836;BME280;6988;52.614;13.500;2022-08-19T05:31:24;53693.75;;;-143.77;87.84
13836;BME280;6988;52.614;13.500;2022-08-19T05:36:15;53693.75;;;-143.77;87.55
13836;BME280;6988;52.614;13.500;2022-08-19T05:41:13;53716.31;;;-143.77;87.41
13836;BME280;6988;52.614;13.500;2022-08-19T05:46:06;53677.34;;;-143.77;87.54
13836;BME280;6988;52.614;13.500;2022-08-19T05:51:04;53691.69;;;-143.77;87.32
13836;BME280;6988;52.614;13.500;2022-08-19T05:55:57;53695.78;;;-143.77;87.47
13836;BME280;6988;52.614;13.500;2022-08-19T06:00:50;53658.88;;;-143.77;87.12
13836;BME280;6988;52.614;13.500;2022-08-19T06:05:43;53654.75;;;-143.77;87.63
13836;BME280;6988;52.614;13.500;2022-08-19T06:10:34;53662.97;;;-143.77;87.36
13836;BME280;6988;52.614;13.500;2022-08-19T06:15:27;53683.50;;;-143.77;86.25
13836;BME280;6988;52.614;13.500;2022-08-19T06:20:20;53648.59;;;-143.77;86.46
13836;BME280;6988;52.614;13.500;2022-08-19T06:25:14;53671.19;;;-143.77;86.16
13836;BME280;6988;52.614;13.500;2022-08-19T06:30:07;53683.50;;;-143.77;86.12
13836;BME280;6988;52.614;13.500;2022-08-19T06:35:00;53634.25;;;-143.77;86.08
13836;BME280;6988;52.614;13.500;2022-08-19T06:39:54;53654.75;;;-143.77;85.96
13836;BME280;6988;52.614;13.500;2022-08-19T06:44:48;53621.94;;;-143.77;85.67
13836;BME280;6988;52.614;13.500;2022-08-19T06:49:40;53634.25;;;-143.77;85.19
13836;BME280;6988;52.614;13.500;2022-08-19T06:54:31;53615.78;;;-143.77;85.32
13836;BME280;6988;52.614;13.500;2022-08-19T06:59:25;53638.34;;;-143.77;85.04
13836;BME280;6988;52.614;13.500;2022-08-19T07:04:23;53630.16;;;-143.77;83.96
13836;BME280;6988;52.614;13.500;2022-08-19T07:09:18;53656.81;;;-143.77;83.28
13836;BME280;6988;52.614;13.500;2022-08-19T07:14:09;53642.47;;;-143.77;83.62
13836;BME280;6988;52.614;13.500;2022-08-19T07:19:03;53611.69;;;-143.77;82.16
13836;BME280;6988;52.614;13.500;2022-08-19T07:23:56;53644.50;;;-143.77;81.81
13836;BME280;6988;52.614;13.500;2022-08-19T07:28:49;53580.91;;;-143.77;82.01
13836;BME280;6988;52.614;13.500;2022-08-19T07:33:41;53597.31;;;-143.77;82.54
13836;BME280;6988;52.614;13.500;2022-08-19T07:38:35;53591.16;;;-143.77;82.61
13836;BME280;6988;52.614;13.500;2022-08-19T07:43:27;53597.31;;;-143.77;81.51
13836;BME280;6988;52.614;13.500;2022-08-19T07:48:19;53626.03;;;-143.77;81.44
13836;BME280;6988;52.614;13.500;2022-08-19T07:53:11;53617.84;;;-143.77;81.79
13836;BME280;6988;52.614;13.500;2022-08-19T07:58:05;53624.00;;;-143.77;82.29
13836;BME280;6988;52.614;13.500;2022-08-19T08:02:57;53630.16;;;-143.77;82.02
13836;BME280;6988;52.614;13.500;2022-08-19T08:07:49;53603.47;;;-143.77;82.21
13836;BME280;6988;52.614;13.500;2022-08-19T08:12:59;53589.13;;;-143.77;82.23
13836;BME280;6988;52.614;13.500;2022-08-19T08:17:53;53617.84;;;-143.77;82.55
13836;BME280;6988;52.614;13.500;2022-08-19T08:22:47;53585.00;;;-143.77;81.67
13836;BME280;6988;52.614;13.500;2022-08-19T08:27:57;53564.50;;;-143.77;81.00
13836;BME280;6988;52.614;13.500;2022-08-19T08:32:52;53570.66;;;-143.77;81.27
13836;BME280;6988;52.614;13.500;2022-08-19T08:37:46;53572.72;;;-143.77;80.96
13836;BME280;6988;52.614;13.500;2022-08-19T08:42:51;53564.50;;;-143.77;80.74
13836;BME280;6988;52.614;13.500;2022-08-19T08:47:50;53535.78;;;-143.77;80.25
13836;BME280;6988;52.614;13.500;2022-08-19T08:52:48;53585.00;;;-143.77;79.76
13836;BME280;6988;52.614;13.500;2022-08-19T08:57:51;53539.88;;;-143.77;79.25
13836;BME280;6988;52.614;13.500;2022-08-19T09:02:45;53539.88;;;-143.77;78.59
13836;BME280;6988;52.614;13.500;2022-08-19T09:07:49;53498.84;;;-143.77;76.78
13836;BME280;6988;52.614;13.500;2022-08-19T09:12:53;53494.75;;;-143.77;76.68
13836;BME280;6988;52.614;13.500;2022-08-19T09:17:47;53498.84;;;-143.77;75.63
13836;BME280;6988;52.614;13.500;2022-08-19T09:22:41;53455.78;;;-143.77;75.08
13836;BME280;6988;52.614;13.500;2022-08-19T09:27:37;53386.03;;;-143.77;75.86
13836;BME280;6988;52.614;13.500;2022-08-19T09:32:30;53451.66;;;-143.77;73.79
13836;BME280;6988;52.614;13.500;2022-08-19T09:37:22;53410.66;;;-143.77;72.50
13836;BME280;6988;52.614;13.500;2022-08-19T09:42:14;53316.28;;;-143.77;71.44
13836;BME280;6988;52.614;13.500;2022-08-19T09:47:10;53351.16;;;-143.77;70.35
13836;BME280;6988;52.614;13.500;2022-08-19T09:52:03;53334.75;;;-143.77;68.56
13836;BME280;6988;52.614;13.500;2022-08-19T09:56:58;53359.34;;;-143.77;68.43
13836;BME280;6988;52.614;13.500;2022-08-19T10:01:51;53369.63;;;-143.77;68.39
13836;BME280;6988;52.614;13.500;2022-08-19T10:06:44;53369.63;;;-143.77;68.04
13836;BME280;6988;52.614;13.500;2022-08-19T10:11:41;53334.75;;;-143.77;67.00
13836;BME280;6988;52.614;13.500;2022-08-19T10:16:33;53375.78;;;-143.77;67.38
13836;BME280;6988;52.614;13.500;2022-08-19T10:21:32;53369.63;;;-143.77;67.93
13836;BME280;6988;52.614;13.500;2022-08-19T10:26:31;53404.50;;;-143.77;67.65
13836;BME280;6988;52.614;13.500;2022-08-19T10:31:29;53404.50;;;-143.77;68.27
13836;BME280;6988;52.614;13.500;2022-08-19T10:36:25;53412.69;;;-143.77;69.36
13836;BME280;6988;52.614;13.500;2022-08-19T10:41:20;53408.59;;;-143.77;68.32
13836;BME280;6988;52.614;13.500;2022-08-19T10:46:15;53414.75;;;-143.77;67.67
13836;BME280;6988;52.614;13.500;2022-08-19T10:51:08;53427.06;;;-143.77;66.30
13836;BME280;6988;52.614;13.500;2022-08-19T10:56:18;53412.69;;;-143.77;65.79
13836;BME280;6988;52.614;13.500;2022-08-19T11:01:30;53404.50;;;-143.77;66.29
13836;BME280;6988;52.614;13.500;2022-08-19T11:06:24;53422.94;;;-143.77;66.67
13836;BME280;6988;52.614;13.500;2022-08-19T11:11:17;53406.53;;;-143.77;67.62
13836;BME280;6988;52.614;13.500;2022-08-19T11:16:13;53429.09;;;-143.77;67.85
13836;BME280;6988;52.614;13.500;2022-08-19T11:21:13;53457.81;;;-143.77;67.76
13836;BME280;6988;52.614;13.500;2022-08-19T11:26:07;53480.38;;;-143.77;68.27
13836;BME280;6988;52.614;13.500;2022-08-19T11:30:59;53500.91;;;-143.77;69.12
13836;BME280;6988;52.614;13.500;2022-08-19T11:35:52;53472.19;;;-143.77;69.49
13836;BME280;6988;52.614;13.500;2022-08-19T11:40:55;53498.84;;;-143.77;69.51
13836;BME280;6988;52.614;13.500;2022-08-19T11:45:47;53482.44;;;-143.77;70.16
13836;BME280;6988;52.614;13.500;2022-08-19T11:50:39;53490.66;;;-143.77;69.58
13836;BME280;6988;52.614;13.500;2022-08-19T11:55:32;53509.09;;;-143.77;69.06
13836;BME280;6988;52.614;13.500;2022-08-19T12:00:30;53492.69;;;-143.77;69.46
13836;BME280;6988;52.614;13.500;2022-08-19T12:05:22;53537.84;;;-143.77;69.85
13836;BME280;6988;52.614;13.500;2022-08-19T12:10:14;53502.97;;;-143.77;69.51
13836;BME280;6988;52.614;13.500;2022-08-19T12:15:08;53486.53;;;-143.77;69.95
13836;BME280;6988;52.614;13.500;2022-08-19T12:20:04;53461.94;;;-143.77;69.07
13836;BME280;6988;52.614;13.500;2022-08-19T12:24:57;53498.84;;;-143.77;68.80
13836;BME280;6988;52.614;13.500;2022-08-19T12:29:48;53455.78;;;-143.77;68.27
13836;BME280;6988;52.614;13.500;2022-08-19T12:34:40;53459.88;;;-143.77;68.82
13836;BME280;6988;52.614;13.500;2022-08-19T12:39:37;53293.72;;;-143.77;66.61
13836;BME280;6988;52.614;13.500;2022-08-19T12:44:29;53318.34;;;-143.77;65.21
13836;BME280;6988;52.614;13.500;2022-08-19T12:49:22;53394.22;;;-143.77;65.24
13836;BME280;6988;52.614;13.500;2022-08-19T12:54:15;53416.78;;;-143.77;64.83
13836;BME280;6988;52.614;13.500;2022-08-19T12:59:09;53388.06;;;-143.77;64.96
13836;BME280;6988;52.614;13.500;2022-08-19T13:04:02;53404.50;;;-143.77;65.47
13836;BME280;6988;52.614;13.500;2022-08-19T13:08:54;53394.22;;;-143.77;64.78
13836;BME280;6988;52.614;13.500;2022-08-19T13:13:49;53330.63;;;-143.77;63.58
13836;BME280;6988;52.614;13.500;2022-08-19T13:18:45;53363.47;;;-143.77;64.02
13836;BME280;6988;52.614;13.500;2022-08-19T13:23:38;53342.94;;;-143.77;62.81
13836;BME280;6988;52.614;13.500;2022-08-19T13:28:31;53369.63;;;-143.77;62.57
13836;BME280;6988;52.614;13.500;2022-08-19T13:33:37;53355.25;;;-143.77;62.78
13836;BME280;6988;52.614;13.500;2022-08-19T13:38:30;53373.72;;;-143.77;62.54
13836;BME280;6988;52.614;13.500;2022-08-19T13:43:26;53361.41;;;-143.77;62.45
13836;BME280;6988;52.614;13.500;2022-08-19T13:48:18;53351.16;;;-143.77;62.32
13836;BME280;6988;52.614;13.500;2022-08-19T13:53:11;53334.75;;;-143.77;61.89
13836;BME280;6988;52.614;13.500;2022-08-19T13:58:04;53351.16;;;-143.77;61.27
13836;BME280;6988;52.614;13.500;2022-08-19T14:02:57;53330.63;;;-143.77;60.99
13836;BME280;6988;52.614;13.500;2022-08-19T14:07:48;53342.94;;;-143.77;60.61
13836;BME280;6988;52.614;13.500;2022-08-19T14:12:41;53314.22;;;-143.77;61.51
13836;BME280;6988;52.614;13.500;2022-08-19T14:17:37;53347.06;;;-143.77;60.58
13836;BME280;6988;52.614;13.500;2022-08-19T14:22:29;53338.84;;;-143.77;59.83
13836;BME280;6988;52.614;13.500;2022-08-19T14:27:21;53369.63;;;-143.77;60.81
13836;BME280;6988;52.614;13.500;2022-08-19T14:32:15;53363.47;;;-143.77;61.12
13836;BME280;6988;52.614;13.500;2022-08-19T14:37:08;53388.06;;;-143.77;60.83
13836;BME280;6988;52.614;13.500;2022-08-19T14:42:00;53363.47;;;-143.77;61.10
13836;BME280;6988;52.614;13.500;2022-08-19T14:46:52;53396.28;;;-143.77;61.35
13836;BME280;6988;52.614;13.500;2022-08-19T14:51:44;53410.66;;;-143.77;61.96
13836;BME280;6988;52.614;13.500;2022-08-19T14:56:40;53422.94;;;-143.77;62.12
13836;BME280;6988;52.614;13.500;2022-08-19T15:01:32;53433.22;;;-143.77;62.46
13836;BME280;6988;52.614;13.500;2022-08-19T15:06:26;53490.66;;;-143.77;63.68
13836;BME280;6988;52.614;13.500;2022-08-19T15:11:20;53470.13;;;-143.77;63.79
13836;BME280;6988;52.614;13.500;2022-08-19T15:16:15;53472.19;;;-143.77;64.20
13836;BME280;6988;52.614;13.500;2022-08-19T15:21:07;53486.53;;;-143.77;64.63
13836;BME280;6988;52.614;13.500;2022-08-19T15:25:59;53570.66;;;-143.77;64.63
13836;BME280;6988;52.614;13.500;2022-08-19T15:30:52;53502.97;;;-143.77;65.38
13836;BME280;6988;52.614;13.500;2022-08-19T15:35:47;53546.03;;;-143.77;65.70
13836;BME280;6988;52.614;13.500;2022-08-19T15:40:41;53539.88;;;-143.77;66.47
13836;BME280;6988;52.614;13.500;2022-08-19T15:45:33;53558.34;;;-143.77;66.98
13836;BME280;6988;52.614;13.500;2022-08-19T15:50:25;53556.28;;;-143.77;66.89
13836;BME280;6988;52.614;13.500;2022-08-19T15:55:23;53593.22;;;-143.77;66.85
13836;BME280;6988;52.614;13.500;2022-08-19T16:00:15;53572.72;;;-143.77;67.21
13836;BME280;6988;52.614;13.500;2022-08-19T16:05:26;53570.66;;;-143.77;67.81
13836;BME280;6988;52.614;13.500;2022-08-19T16:10:38;53595.28;;;-143.77;68.29
13836;BME280;6988;52.614;13.500;2022-08-19T16:15:31;53587.06;;;-143.77;69.22
13836;BME280;6988;52.614;13.500;2022-08-19T16:20:23;53585.00;;;-143.77;70.04
13836;BME280;6988;52.614;13.500;2022-08-19T16:25:16;53578.84;;;-143.77;70.57
13836;BME280;6988;52.614;13.500;2022-08-19T16:30:10;53580.91;;;-143.77;70.51
13836;BME280;6988;52.614;13.500;2022-08-19T16:35:04;53556.28;;;-143.77;70.78
13836;BME280;6988;52.614;13.500;2022-08-19T16:39:56;53597.31;;;-143.77;71.22
13836;BME280;6988;52.614;13.500;2022-08-19T16:44:48;53589.13;;;-143.77;71.51
13836;BME280;6988;52.614;13.500;2022-08-19T16:49:41;53601.44;;;-143.77;71.75
13836;BME280;6988;52.614;13.500;2022-08-19T16:54:33;53632.19;;;-143.77;71.47
13836;BME280;6988;52.614;13.500;2022-08-19T16:59:25;53601.44;;;-143.77;71.58
13836;BME280;6988;52.614;13.500;2022-08-19T17:04:17;53589.13;;;-143.77;71.87
13836;BME280;6988;52.614;13.500;2022-08-19T17:09:10;53605.53;;;-143.77;72.11
13836;BME280;6988;52.614;13.500;2022-08-19T17:14:04;53599.38;;;-143.77;72.40
13836;BME280;6988;52.614;13.500;2022-08-19T17:19:01;53626.03;;;-143.77;72.11
13836;BME280;6988;52.614;13.500;2022-08-19T17:23:53;53615.78;;;-143.77;72.67
13836;BME280;6988;52.614;13.500;2022-08-19T17:28:49;53634.25;;;-143.77;72.81
13836;BME280;6988;52.614;13.500;2022-08-19T17:33:40;53654.75;;;-143.77;72.70
13836;BME280;6988;52.614;13.500;2022-08-19T17:38:33;53638.34;;;-143.77;73.10
13836;BME280;6988;52.614;13.500;2022-08-19T17:43:26;53621.94;;;-143.77;72.75
13836;BME280;6988;52.614;13.500;2022-08-19T17:48:19;53621.94;;;-143.77;73.16
13836;BME280;6988;52.614;13.500;2022-08-19T17:53:11;53619.88;;;-143.77;73.74
13836;BME280;6988;52.614;13.500;2022-08-19T17:58:03;53654.75;;;-143.77;73.16
13836;BME280;6988;52.614;13.500;2022-08-19T18:02:59;53646.56;;;-143.77;73.98
13836;BME280;6988;52.614;13.500;2022-08-19T18:07:54;53646.56;;;-143.77;74.63
13836;BME280;6988;52.614;13.500;2022-08-19T18:12:46;53626.03;;;-143.77;74.64
13836;BME280;6988;52.614;13.500;2022-08-19T18:17:38;53677.34;;;-143.77;74.86
13836;BME280;6988;52.614;13.500;2022-08-19T18:22:33;53693.75;;;-143.77;75.00
13836;BME280;6988;52.614;13.500;2022-08-19T18:27:27;53695.78;;;-143.77;75.55
13836;BME280;6988;52.614;13.500;2022-08-19T18:32:19;53693.75;;;-143.77;75.55
13836;BME280;6988;52.614;13.500;2022-08-19T18:37:12;53658.88;;;-143.77;75.25
13836;BME280;6988;52.614;13.500;2022-08-19T18:42:04;53673.22;;;-143.77;75.40
13836;BME280;6988;52.614;13.500;2022-08-19T18:47:15;53691.69;;;-143.77;75.84
13836;BME280;6988;52.614;13.500;2022-08-19T18:52:24;53681.44;;;-143.77;75.57
13836;BME280;6988;52.614;13.500;2022-08-19T18:57:17;53691.69;;;-143.77;75.97
13836;BME280;6988;52.614;13.500;2022-08-19T19:02:15;53689.63;;;-143.77;76.08
13836;BME280;6988;52.614;13.500;2022-08-19T19:07:08;53701.94;;;-143.77;76.55
13836;BME280;6988;52.614;13.500;2022-08-19T19:12:03;53699.91;;;-143.77;76.20
13836;BME280;6988;52.614;13.500;2022-08-19T19:16:56;53699.91;;;-143.77;76.50
13836;BME280;6988;52.614;13.500;2022-08-19T19:21:49;53687.59;;;-143.77;76.72
13836;BME280;6988;52.614;13.500;2022-08-19T19:26:42;53701.94;;;-143.77;76.87
13836;BME280;6988;52.614;13.500;2022-08-19T19:31:35;53693.75;;;-143.77;77.07
13836;BME280;6988;52.614;13.500;2022-08-19T19:36:27;53699.91;;;-143.77;76.97
13836;BME280;6988;52.614;13.500;2022-08-19T19:41:22;53691.69;;;-143.77;77.05
13836;BME280;6988;52.614;13.500;2022-08-19T19:46:14;53724.50;;;-143.77;77.01
13836;BME280;6988;52.614;13.500;2022-08-19T19:51:07;53691.69;;;-143.77;77.06
13836;BME280;6988;52.614;13.500;2022-08-19T19:55:59;53728.63;;;-143.77;77.44
13836;BME280;6988;52.614;13.500;2022-08-19T20:00:56;53734.78;;;-143.77;77.38
13836;BME280;6988;52.614;13.500;2022-08-19T20:05:48;53716.31;;;-143.77;77.79
13836;BME280;6988;52.614;13.500;2022-08-19T20:10:42;53708.09;;;-143.77;77.88
13836;BME280;6988;52.614;13.500;2022-08-19T20:15:36;53730.66;;;-143.77;77.84
13836;BME280;6988;52.614;13.500;2022-08-19T20:20:30;53749.13;;;-143.77;77.86
13836;BME280;6988;52.614;13.500;2022-08-19T20:25:22;53724.50;;;-143.77;77.87
13836;BME280;6988;52.614;13.500;2022-08-19T20:30:18;53786.06;;;-143.77;78.03
13836;BME280;6988;52.614;13.500;2022-08-19T20:35:12;53722.47;;;-143.77;78.24
13836;BME280;6988;52.614;13.500;2022-08-19T20:40:07;53724.50;;;-143.77;77.80
13836;BME280;6988;52.614;13.500;2022-08-19T20:45:01;53716.31;;;-143.77;77.85
13836;BME280;6988;52.614;13.500;2022-08-19T20:49:52;53699.91;;;-143.77;78.07
13836;BME280;6988;52.614;13.500;2022-08-19T20:54:44;53732.72;;;-143.77;78.36
13836;BME280;6988;52.614;13.500;2022-08-19T20:59:37;53734.78;;;-143.77;78.65
13836;BME280;6988;52.614;13.500;2022-08-19T21:04:29;53732.72;;;-143.77;78.23
13836;BME280;6988;52.614;13.500;2022-08-19T21:09:21;53755.28;;;-143.77;78.46
13836;BME280;6988;52.614;13.500;2022-08-19T21:14:13;53747.09;;;-143.77;78.48
13836;BME280;6988;52.614;13.500;2022-08-19T21:19:06;53732.72;;;-143.77;78.61
13836;BME280;6988;52.614;13.500;2022-08-19T21:23:57;53759.41;;;-143.77;78.87
13836;BME280;6988;52.614;13.500;2022-08-19T21:28:49;53720.41;;;-143.77;78.84
13836;BME280;6988;52.614;13.500;2022-08-19T21:33:41;53726.56;;;-143.77;79.03
13836;BME280;6988;52.614;13.500;2022-08-19T21:38:35;53732.72;;;-143.77;79.10
13836;BME280;6988;52.614;13.500;2022-08-19T21:43:27;53724.50;;;-143.77;79.03
13836;BME280;6988;52.614;13.500;2022-08-19T22:03:37;53757.34;;;-143.77;81.23
13836;BME280;6988;52.614;13.500;2022-08-19T22:08:29;53736.81;;;-143.77;81.95
13836;BME280;6988;52.614;13.500;2022-08-19T22:13:21;53736.81;;;-143.77;82.19
13836;BME280;6988;52.614;13.500;2022-08-19T22:18:13;53765.53;;;-143.77;82.16
13836;BME280;6988;52.614;13.500;2022-08-19T22:23:08;53761.44;;;-143.77;81.87
13836;BME280;6988;52.614;13.500;2022-08-19T22:28:03;53742.97;;;-143.77;81.64
13836;BME280;6988;52.614;13.500;2022-08-19T22:32:58;53767.59;;;-143.77;81.07
13836;BME280;6988;52.614;13.500;2022-08-19T22:37:50;53757.34;;;-143.77;81.36
13836;BME280;6988;52.614;13.500;2022-08-19T22:42:44;53699.91;;;-143.77;81.81
13836;BME280;6988;52.614;13.500;2022-08-19T22:47:37;53753.25;;;-143.77;81.90
13836;BME280;6988;52.614;13.500;2022-08-19T22:52:30;53751.19;;;-143.77;81.60
13836;BME280;6988;52.614;13.500;2022-08-19T22:57:22;53732.72;;;-143.77;81.50
13836;BME280;6988;52.614;13.500;2022-08-19T23:02:19;53751.19;;;-143.77;81.49
13836;BME280;6988;52.614;13.500;2022-08-19T23:07:12;53763.50;;;-143.77;81.53
13836;BME280;6988;52.614;13.500;2022-08-19T23:12:04;53777.84;;;-143.77;81.82
13836;BME280;6988;52.614;13.500;2022-08-19T23:16:57;53757.34;;;-143.77;81.80
13836;BME280;6988;52.614;13.500;2022-08-19T23:21:50;53757.34;;;-143.77;81.42
13836;BME280;6988;52.614;13.500;2022-08-19T23:26:43;53751.19;;;-143.77;81.73
13836;BME280;6988;52.614;13.500;2022-08-19T23:31:54;53749.13;;;-143.77;81.41
13836;BME280;6988;52.614;13.500;2022-08-19T23:36:46;53765.53;;;-143.77;81.40
13836;BME280;6988;52.614;13.500;2022-08-19T23:41:41;53771.69;;;-143.77;81.56
13836;BME280;6988;52.614;13.500;2022-08-19T23:46:33;53790.16;;;-143.77;81.98
13836;BME280;6988;52.614;13.500;2022-08-19T23:51:26;53742.97;;;-143.77;81.85
13836;BME280;6988;52.614;13.500;2022-08-19T23:56:17;53759.41;;;-143.77;81.99
